sensor_id;sensor_type;location;lat;lon;timestamp;temperature;humidity
25250;DHT22;13201;51.148;13.738;2022-12-07T00:01:40;3.30;99.90
25250;DHT22;13201;51.148;13.738;2022-12-07T00:04:08;3.40;99.90
25250;DHT22;13201;51.148;13.738;2022-12-07T00:06:43;3.30;99.90
25250;DHT22;13201;51.148;13.738;2022-12-07T00:09:12;3.40;99.90
25250;DHT22;13201;51.148;13.738;2022-12-07T00:11:38;3.30;99.90
25250;DHT22;13201;51.148;13.738;2022-12-07T00:14:06;3.30;99.90
25250;DHT22;13201;51.148;13.738;2022-12-07T00:16:33;3.30;99.90
25250;DHT22;13201;51.148;13.738;2022-12-07T00:19:00;3.20;99.90
25250;DHT22;13201;51.148;13.738;2022-12-07T00:21:31;3.20;99.90
25250;DHT22;13201;51.148;13.738;2022-12-07T00:23:57;3.30;99.90
25250;DHT22;13201;51.148;13.738;2022-12-07T00:26:29;3.40;99.90
25250;DHT22;13201;51.148;13.738;2022-12-07T00:28:58;3.40;99.90
25250;DHT22;13201;51.148;13.738;2022-12-07T00:31:28;3.40;99.90
25250;DHT22;13201;51.148;13.738;2022-12-07T00:33:55;3.40;99.90
25250;DHT22;13201;51.148;13.738;2022-12-07T00:36:23;3.50;99.90
25250;DHT22;13201;51.148;13.738;2022-12-07T00:38:49;3.60;99.90
25250;DHT22;13201;51.148;13.738;2022-12-07T00:41:20;3.50;99.90
25250;DHT22;13201;51.148;13.738;2022-12-07T00:43:47;3.30;99.90
25250;DHT22;13201;51.148;13.738;2022-12-07T00:46:13;3.30;99.90
25250;DHT22;13201;51.148;13.738;2022-12-07T00:48:39;3.50;99.90
25250;DHT22;13201;51.148;13.738;2022-12-07T00:51:06;3.30;99.90
25250;DHT22;13201;51.148;13.738;2022-12-07T00:53:34;3.30;99.90
25250;DHT22;13201;51.148;13.738;2022-12-07T00:56:29;3.30;99.90
25250;DHT22;13201;51.148;13.738;2022-12-07T00:59:03;3.20;99.90
25250;DHT22;13201;51.148;13.738;2022-12-07T01:01:32;3.30;99.90
25250;DHT22;13201;51.148;13.738;2022-12-07T01:03:59;3.40;99.90
25250;DHT22;13201;51.148;13.738;2022-12-07T01:31:17;2.70;99.90
25250;DHT22;13201;51.148;13.738;2022-12-07T01:33:46;2.70;99.90
25250;DHT22;13201;51.148;13.738;2022-12-07T01:36:21;2.80;99.90
25250;DHT22;13201;51.148;13.738;2022-12-07T01:38:48;2.90;99.90
25250;DHT22;13201;51.148;13.738;2022-12-07T01:41:17;2.90;99.90
25250;DHT22;13201;51.148;13.738;2022-12-07T01:46:33;3.20;99.90
25250;DHT22;13201;51.148;13.738;2022-12-07T01:48:59;3.30;99.90
25250;DHT22;13201;51.148;13.738;2022-12-07T01:51:25;3.30;99.90
25250;DHT22;13201;51.148;13.738;2022-12-07T01:53:51;3.40;99.90
25250;DHT22;13201;51.148;13.738;2022-12-07T01:56:20;3.40;99.90
25250;DHT22;13201;51.148;13.738;2022-12-07T01:58:48;3.40;99.90
25250;DHT22;13201;51.148;13.738;2022-12-07T02:01:14;3.40;99.90
25250;DHT22;13201;51.148;13.738;2022-12-07T02:03:42;3.40;99.90
25250;DHT22;13201;51.148;13.738;2022-12-07T02:06:08;3.40;99.90
25250;DHT22;13201;51.148;13.738;2022-12-07T02:08:34;3.30;99.90
25250;DHT22;13201;51.148;13.738;2022-12-07T02:11:03;3.40;99.90
25250;DHT22;13201;51.148;13.738;2022-12-07T02:13:34;3.30;99.90
25250;DHT22;13201;51.148;13.738;2022-12-07T02:22:07;3.20;99.90
25250;DHT22;13201;51.148;13.738;2022-12-07T02:27:46;3.20;99.90
25250;DHT22;13201;51.148;13.738;2022-12-07T02:30:17;3.20;99.90
25250;DHT22;13201;51.148;13.738;2022-12-07T02:35:30;3.10;99.90
25250;DHT22;13201;51.148;13.738;2022-12-07T02:37:59;3.00;99.90
25250;DHT22;13201;51.148;13.738;2022-12-07T02:43:23;3.00;99.90
25250;DHT22;13201;51.148;13.738;2022-12-07T02:45:52;2.90;99.90
25250;DHT22;13201;51.148;13.738;2022-12-07T02:48:20;2.90;99.90
25250;DHT22;13201;51.148;13.738;2022-12-07T02:50:50;3.00;99.90
25250;DHT22;13201;51.148;13.738;2022-12-07T02:53:36;3.10;99.90
25250;DHT22;13201;51.148;13.738;2022-12-07T03:07:52;3.00;99.90
25250;DHT22;13201;51.148;13.738;2022-12-07T03:10:35;3.00;99.90
25250;DHT22;13201;51.148;13.738;2022-12-07T03:13:17;2.90;99.90
25250;DHT22;13201;51.148;13.738;2022-12-07T03:18:38;2.80;99.90
25250;DHT22;13201;51.148;13.738;2022-12-07T03:21:10;2.80;99.90
25250;DHT22;13201;51.148;13.738;2022-12-07T03:23:38;2.80;99.90
25250;DHT22;13201;51.148;13.738;2022-12-07T03:26:09;2.80;99.90
25250;DHT22;13201;51.148;13.738;2022-12-07T03:28:42;2.80;99.90
25250;DHT22;13201;51.148;13.738;2022-12-07T03:31:26;2.80;99.90
25250;DHT22;13201;51.148;13.738;2022-12-07T03:34:20;2.70;99.90
25250;DHT22;13201;51.148;13.738;2022-12-07T03:37:00;2.80;99.90
25250;DHT22;13201;51.148;13.738;2022-12-07T03:42:04;2.60;99.90
25250;DHT22;13201;51.148;13.738;2022-12-07T03:44:31;2.50;99.90
25250;DHT22;13201;51.148;13.738;2022-12-07T03:47:01;2.50;99.90
25250;DHT22;13201;51.148;13.738;2022-12-07T03:55:09;2.60;99.90
25250;DHT22;13201;51.148;13.738;2022-12-07T03:57:37;2.70;99.90
25250;DHT22;13201;51.148;13.738;2022-12-07T04:00:06;2.70;99.90
25250;DHT22;13201;51.148;13.738;2022-12-07T04:02:33;2.60;99.90
25250;DHT22;13201;51.148;13.738;2022-12-07T04:04:58;2.60;99.90
25250;DHT22;13201;51.148;13.738;2022-12-07T04:07:24;2.60;99.90
25250;DHT22;13201;51.148;13.738;2022-12-07T04:09:50;2.50;99.90
25250;DHT22;13201;51.148;13.738;2022-12-07T04:12:16;2.40;99.90
25250;DHT22;13201;51.148;13.738;2022-12-07T04:14:42;2.50;99.90
25250;DHT22;13201;51.148;13.738;2022-12-07T04:17:08;2.40;99.90
25250;DHT22;13201;51.148;13.738;2022-12-07T04:19:34;2.40;99.90
25250;DHT22;13201;51.148;13.738;2022-12-07T04:22:01;2.30;99.90
25250;DHT22;13201;51.148;13.738;2022-12-07T04:24:27;2.40;99.90
25250;DHT22;13201;51.148;13.738;2022-12-07T04:26:53;2.30;99.90
25250;DHT22;13201;51.148;13.738;2022-12-07T04:29:20;2.20;99.90
25250;DHT22;13201;51.148;13.738;2022-12-07T04:31:46;2.20;99.90
25250;DHT22;13201;51.148;13.738;2022-12-07T04:34:12;2.20;99.90
25250;DHT22;13201;51.148;13.738;2022-12-07T04:36:39;2.20;99.90
25250;DHT22;13201;51.148;13.738;2022-12-07T04:39:05;2.20;99.90
25250;DHT22;13201;51.148;13.738;2022-12-07T04:41:31;2.30;99.90
25250;DHT22;13201;51.148;13.738;2022-12-07T04:43:59;2.30;99.90
25250;DHT22;13201;51.148;13.738;2022-12-07T04:46:26;2.30;99.90
25250;DHT22;13201;51.148;13.738;2022-12-07T04:48:52;2.30;99.90
25250;DHT22;13201;51.148;13.738;2022-12-07T04:51:21;2.30;99.90
25250;DHT22;13201;51.148;13.738;2022-12-07T04:53:47;2.30;99.90
25250;DHT22;13201;51.148;13.738;2022-12-07T04:56:14;2.40;99.90
25250;DHT22;13201;51.148;13.738;2022-12-07T04:58:41;2.40;99.90
25250;DHT22;13201;51.148;13.738;2022-12-07T05:01:07;2.40;99.90
25250;DHT22;13201;51.148;13.738;2022-12-07T05:03:33;2.40;99.90
25250;DHT22;13201;51.148;13.738;2022-12-07T05:05:58;2.60;99.90
25250;DHT22;13201;51.148;13.738;2022-12-07T05:08:24;2.60;99.90
25250;DHT22;13201;51.148;13.738;2022-12-07T05:10:50;2.60;99.90
25250;DHT22;13201;51.148;13.738;2022-12-07T05:13:16;2.50;99.90
25250;DHT22;13201;51.148;13.738;2022-12-07T05:15:41;2.50;99.90
25250;DHT22;13201;51.148;13.738;2022-12-07T05:18:09;2.50;99.90
25250;DHT22;13201;51.148;13.738;2022-12-07T05:20:37;2.40;99.90
25250;DHT22;13201;51.148;13.738;2022-12-07T05:23:03;2.40;99.90
25250;DHT22;13201;51.148;13.738;2022-12-07T05:25:28;2.30;99.90
25250;DHT22;13201;51.148;13.738;2022-12-07T05:27:55;2.20;99.90
25250;DHT22;13201;51.148;13.738;2022-12-07T05:30:22;2.10;99.90
25250;DHT22;13201;51.148;13.738;2022-12-07T05:32:48;2.10;99.90
25250;DHT22;13201;51.148;13.738;2022-12-07T05:35:13;2.20;99.90
25250;DHT22;13201;51.148;13.738;2022-12-07T05:37:39;2.20;99.90
25250;DHT22;13201;51.148;13.738;2022-12-07T05:40:05;2.20;99.90
25250;DHT22;13201;51.148;13.738;2022-12-07T05:42:31;2.20;99.90
25250;DHT22;13201;51.148;13.738;2022-12-07T05:44:57;2.20;99.90
25250;DHT22;13201;51.148;13.738;2022-12-07T05:47:22;2.20;99.90
25250;DHT22;13201;51.148;13.738;2022-12-07T05:49:48;2.30;99.90
25250;DHT22;13201;51.148;13.738;2022-12-07T05:52:14;2.30;99.90
25250;DHT22;13201;51.148;13.738;2022-12-07T05:54:40;2.40;99.90
25250;DHT22;13201;51.148;13.738;2022-12-07T05:57:05;2.40;99.90
25250;DHT22;13201;51.148;13.738;2022-12-07T05:59:31;2.50;99.90
25250;DHT22;13201;51.148;13.738;2022-12-07T06:02:06;2.50;99.90
25250;DHT22;13201;51.148;13.738;2022-12-07T06:04:34;2.60;99.90
25250;DHT22;13201;51.148;13.738;2022-12-07T06:07:00;2.60;99.90
25250;DHT22;13201;51.148;13.738;2022-12-07T06:09:26;2.60;99.90
25250;DHT22;13201;51.148;13.738;2022-12-07T06:11:53;2.70;99.90
25250;DHT22;13201;51.148;13.738;2022-12-07T06:14:37;2.70;99.90
25250;DHT22;13201;51.148;13.738;2022-12-07T06:17:03;2.70;99.90
25250;DHT22;13201;51.148;13.738;2022-12-07T06:19:29;2.70;99.90
25250;DHT22;13201;51.148;13.738;2022-12-07T06:21:55;2.70;99.90
25250;DHT22;13201;51.148;13.738;2022-12-07T06:24:21;2.70;99.90
25250;DHT22;13201;51.148;13.738;2022-12-07T06:26:47;2.60;99.90
25250;DHT22;13201;51.148;13.738;2022-12-07T06:29:13;2.60;99.90
25250;DHT22;13201;51.148;13.738;2022-12-07T06:31:40;2.60;99.90
25250;DHT22;13201;51.148;13.738;2022-12-07T06:34:09;2.60;99.90
25250;DHT22;13201;51.148;13.738;2022-12-07T06:36:36;2.60;99.90
25250;DHT22;13201;51.148;13.738;2022-12-07T06:39:02;2.70;99.90
25250;DHT22;13201;51.148;13.738;2022-12-07T06:41:28;2.60;99.90
25250;DHT22;13201;51.148;13.738;2022-12-07T06:43:54;2.70;99.90
25250;DHT22;13201;51.148;13.738;2022-12-07T06:46:19;2.70;99.90
25250;DHT22;13201;51.148;13.738;2022-12-07T06:48:45;2.70;99.90
25250;DHT22;13201;51.148;13.738;2022-12-07T06:51:11;2.80;99.90
25250;DHT22;13201;51.148;13.738;2022-12-07T06:53:37;2.80;99.90
25250;DHT22;13201;51.148;13.738;2022-12-07T06:56:03;2.80;99.90
25250;DHT22;13201;51.148;13.738;2022-12-07T06:58:29;2.70;99.90
25250;DHT22;13201;51.148;13.738;2022-12-07T07:00:55;2.70;99.90
25250;DHT22;13201;51.148;13.738;2022-12-07T07:03:21;2.70;99.90
25250;DHT22;13201;51.148;13.738;2022-12-07T07:05:47;2.70;99.90
25250;DHT22;13201;51.148;13.738;2022-12-07T07:08:12;2.60;99.90
25250;DHT22;13201;51.148;13.738;2022-12-07T07:10:39;2.70;99.90
25250;DHT22;13201;51.148;13.738;2022-12-07T07:13:05;2.50;99.90
25250;DHT22;13201;51.148;13.738;2022-12-07T07:15:31;2.50;99.90
25250;DHT22;13201;51.148;13.738;2022-12-07T07:17:57;2.50;99.90
25250;DHT22;13201;51.148;13.738;2022-12-07T07:20:22;2.50;99.90
25250;DHT22;13201;51.148;13.738;2022-12-07T07:22:48;2.50;99.90
25250;DHT22;13201;51.148;13.738;2022-12-07T07:25:14;2.50;99.90
25250;DHT22;13201;51.148;13.738;2022-12-07T07:27:41;2.40;99.90
25250;DHT22;13201;51.148;13.738;2022-12-07T07:30:07;2.50;99.90
25250;DHT22;13201;51.148;13.738;2022-12-07T07:32:33;2.50;99.90
25250;DHT22;13201;51.148;13.738;2022-12-07T07:34:59;2.40;99.90
25250;DHT22;13201;51.148;13.738;2022-12-07T07:37:25;2.50;99.90
25250;DHT22;13201;51.148;13.738;2022-12-07T07:39:51;2.60;99.90
25250;DHT22;13201;51.148;13.738;2022-12-07T07:42:17;2.60;99.90
25250;DHT22;13201;51.148;13.738;2022-12-07T07:44:43;2.60;99.90
25250;DHT22;13201;51.148;13.738;2022-12-07T07:47:08;2.50;99.90
25250;DHT22;13201;51.148;13.738;2022-12-07T07:49:34;2.60;99.90
25250;DHT22;13201;51.148;13.738;2022-12-07T07:52:00;2.70;99.90
25250;DHT22;13201;51.148;13.738;2022-12-07T07:54:25;2.80;99.90
25250;DHT22;13201;51.148;13.738;2022-12-07T07:56:52;2.80;99.90
25250;DHT22;13201;51.148;13.738;2022-12-07T07:59:18;2.90;99.90
25250;DHT22;13201;51.148;13.738;2022-12-07T08:01:44;2.90;99.90
25250;DHT22;13201;51.148;13.738;2022-12-07T08:04:09;3.00;99.90
25250;DHT22;13201;51.148;13.738;2022-12-07T08:06:35;2.90;99.90
25250;DHT22;13201;51.148;13.738;2022-12-07T08:09:01;2.90;99.90
25250;DHT22;13201;51.148;13.738;2022-12-07T08:11:27;3.00;99.90
25250;DHT22;13201;51.148;13.738;2022-12-07T08:13:53;3.10;99.90
25250;DHT22;13201;51.148;13.738;2022-12-07T08:16:19;3.10;99.90
25250;DHT22;13201;51.148;13.738;2022-12-07T08:18:44;3.20;99.90
25250;DHT22;13201;51.148;13.738;2022-12-07T08:21:12;3.20;99.90
25250;DHT22;13201;51.148;13.738;2022-12-07T08:23:38;3.20;99.90
25250;DHT22;13201;51.148;13.738;2022-12-07T08:26:05;3.30;99.90
25250;DHT22;13201;51.148;13.738;2022-12-07T08:28:32;3.30;99.90
25250;DHT22;13201;51.148;13.738;2022-12-07T08:31:06;3.30;99.90
25250;DHT22;13201;51.148;13.738;2022-12-07T08:33:32;3.30;99.90
25250;DHT22;13201;51.148;13.738;2022-12-07T08:36:05;3.30;99.90
25250;DHT22;13201;51.148;13.738;2022-12-07T08:38:31;3.30;99.90
25250;DHT22;13201;51.148;13.738;2022-12-07T08:40:58;3.30;99.90
25250;DHT22;13201;51.148;13.738;2022-12-07T08:43:24;3.40;99.90
25250;DHT22;13201;51.148;13.738;2022-12-07T08:46:19;3.30;99.90
25250;DHT22;13201;51.148;13.738;2022-12-07T08:49:08;3.40;99.90
25250;DHT22;13201;51.148;13.738;2022-12-07T08:51:34;3.50;99.90
25250;DHT22;13201;51.148;13.738;2022-12-07T08:54:04;3.50;99.90
25250;DHT22;13201;51.148;13.738;2022-12-07T08:56:31;3.50;99.90
25250;DHT22;13201;51.148;13.738;2022-12-07T08:58:57;3.60;99.90
25250;DHT22;13201;51.148;13.738;2022-12-07T09:01:23;3.60;99.90
25250;DHT22;13201;51.148;13.738;2022-12-07T09:03:49;3.70;99.90
25250;DHT22;13201;51.148;13.738;2022-12-07T09:06:14;3.60;99.90
25250;DHT22;13201;51.148;13.738;2022-12-07T09:08:43;3.70;99.90
25250;DHT22;13201;51.148;13.738;2022-12-07T09:11:09;3.80;99.90
25250;DHT22;13201;51.148;13.738;2022-12-07T09:13:35;3.80;99.90
25250;DHT22;13201;51.148;13.738;2022-12-07T09:16:00;3.80;99.90
25250;DHT22;13201;51.148;13.738;2022-12-07T09:18:26;3.90;99.90
25250;DHT22;13201;51.148;13.738;2022-12-07T09:20:52;3.90;99.90
25250;DHT22;13201;51.148;13.738;2022-12-07T09:23:17;3.90;99.90
25250;DHT22;13201;51.148;13.738;2022-12-07T09:25:43;3.90;99.90
25250;DHT22;13201;51.148;13.738;2022-12-07T09:28:09;4.00;99.90
25250;DHT22;13201;51.148;13.738;2022-12-07T09:30:35;3.90;99.90
25250;DHT22;13201;51.148;13.738;2022-12-07T09:33:01;4.00;99.90
25250;DHT22;13201;51.148;13.738;2022-12-07T09:35:27;4.10;99.90
25250;DHT22;13201;51.148;13.738;2022-12-07T09:37:53;4.20;99.90
25250;DHT22;13201;51.148;13.738;2022-12-07T09:40:20;4.30;99.90
25250;DHT22;13201;51.148;13.738;2022-12-07T09:42:52;4.30;99.90
25250;DHT22;13201;51.148;13.738;2022-12-07T09:45:22;4.30;99.90
25250;DHT22;13201;51.148;13.738;2022-12-07T09:47:48;4.40;99.90
25250;DHT22;13201;51.148;13.738;2022-12-07T09:50:20;4.40;99.90
25250;DHT22;13201;51.148;13.738;2022-12-07T09:52:47;4.40;99.90
25250;DHT22;13201;51.148;13.738;2022-12-07T09:55:16;4.60;99.90
25250;DHT22;13201;51.148;13.738;2022-12-07T09:57:43;4.70;99.90
25250;DHT22;13201;51.148;13.738;2022-12-07T10:00:15;4.60;99.90
25250;DHT22;13201;51.148;13.738;2022-12-07T10:02:48;4.60;99.90
25250;DHT22;13201;51.148;13.738;2022-12-07T10:05:35;4.50;99.90
25250;DHT22;13201;51.148;13.738;2022-12-07T10:08:03;4.50;99.90
25250;DHT22;13201;51.148;13.738;2022-12-07T10:10:34;4.70;99.90
25250;DHT22;13201;51.148;13.738;2022-12-07T10:13:12;4.90;99.90
25250;DHT22;13201;51.148;13.738;2022-12-07T10:15:45;4.80;99.90
25250;DHT22;13201;51.148;13.738;2022-12-07T10:18:35;4.90;99.90
25250;DHT22;13201;51.148;13.738;2022-12-07T10:23:34;4.90;99.90
25250;DHT22;13201;51.148;13.738;2022-12-07T10:26:46;5.00;99.90
25250;DHT22;13201;51.148;13.738;2022-12-07T10:29:15;5.00;99.90
25250;DHT22;13201;51.148;13.738;2022-12-07T10:31:42;5.10;99.90
25250;DHT22;13201;51.148;13.738;2022-12-07T10:36:47;5.10;99.90
25250;DHT22;13201;51.148;13.738;2022-12-07T10:39:18;4.90;99.90
25250;DHT22;13201;51.148;13.738;2022-12-07T10:41:57;4.90;99.90
25250;DHT22;13201;51.148;13.738;2022-12-07T10:44:41;4.80;99.90
25250;DHT22;13201;51.148;13.738;2022-12-07T10:50:34;4.90;99.90
25250;DHT22;13201;51.148;13.738;2022-12-07T10:58:36;5.00;99.90
25250;DHT22;13201;51.148;13.738;2022-12-07T11:12:46;4.90;99.90
25250;DHT22;13201;51.148;13.738;2022-12-07T11:23:13;4.90;99.90
25250;DHT22;13201;51.148;13.738;2022-12-07T11:25:49;4.90;99.90
25250;DHT22;13201;51.148;13.738;2022-12-07T11:31:36;5.00;99.90
25250;DHT22;13201;51.148;13.738;2022-12-07T11:36:49;5.20;99.90
25250;DHT22;13201;51.148;13.738;2022-12-07T11:39:35;5.10;99.90
25250;DHT22;13201;51.148;13.738;2022-12-07T11:42:24;4.90;99.90
25250;DHT22;13201;51.148;13.738;2022-12-07T11:44:59;4.90;99.90
25250;DHT22;13201;51.148;13.738;2022-12-07T11:47:34;4.60;99.90
25250;DHT22;13201;51.148;13.738;2022-12-07T11:53:18;4.40;99.90
25250;DHT22;13201;51.148;13.738;2022-12-07T12:03:34;4.80;99.90
25250;DHT22;13201;51.148;13.738;2022-12-07T12:06:01;4.70;99.90
25250;DHT22;13201;51.148;13.738;2022-12-07T12:09:02;4.60;99.90
25250;DHT22;13201;51.148;13.738;2022-12-07T12:22:05;4.80;99.90
25250;DHT22;13201;51.148;13.738;2022-12-07T12:24:34;4.90;99.90
25250;DHT22;13201;51.148;13.738;2022-12-07T12:27:06;5.10;99.90
25250;DHT22;13201;51.148;13.738;2022-12-07T12:29:38;4.90;99.90
25250;DHT22;13201;51.148;13.738;2022-12-07T12:32:22;5.00;99.90
25250;DHT22;13201;51.148;13.738;2022-12-07T12:42:50;5.10;99.90
25250;DHT22;13201;51.148;13.738;2022-12-07T12:45:32;5.00;99.90
25250;DHT22;13201;51.148;13.738;2022-12-07T12:48:26;5.00;99.90
25250;DHT22;13201;51.148;13.738;2022-12-07T12:54:14;5.00;99.90
25250;DHT22;13201;51.148;13.738;2022-12-07T12:56:59;4.90;99.90
25250;DHT22;13201;51.148;13.738;2022-12-07T12:59:55;4.90;99.90
25250;DHT22;13201;51.148;13.738;2022-12-07T13:02:36;4.80;99.90
25250;DHT22;13201;51.148;13.738;2022-12-07T13:15:36;4.90;99.90
25250;DHT22;13201;51.148;13.738;2022-12-07T13:23:29;3.70;99.90
25250;DHT22;13201;51.148;13.738;2022-12-07T13:28:39;3.80;99.90
25250;DHT22;13201;51.148;13.738;2022-12-07T13:33:50;3.60;99.90
25250;DHT22;13201;51.148;13.738;2022-12-07T13:39:00;3.80;99.90
25250;DHT22;13201;51.148;13.738;2022-12-07T13:41:35;3.90;99.90
25250;DHT22;13201;51.148;13.738;2022-12-07T13:44:15;4.00;99.90
25250;DHT22;13201;51.148;13.738;2022-12-07T13:49:31;4.30;99.90
25250;DHT22;13201;51.148;13.738;2022-12-07T13:52:28;4.10;99.90
25250;DHT22;13201;51.148;13.738;2022-12-07T13:55:01;4.20;99.90
25250;DHT22;13201;51.148;13.738;2022-12-07T13:57:35;4.30;99.90
25250;DHT22;13201;51.148;13.738;2022-12-07T14:00:03;4.40;99.90
25250;DHT22;13201;51.148;13.738;2022-12-07T14:02:32;4.40;99.90
25250;DHT22;13201;51.148;13.738;2022-12-07T14:05:24;4.60;99.90
25250;DHT22;13201;51.148;13.738;2022-12-07T14:07:58;4.50;99.90
25250;DHT22;13201;51.148;13.738;2022-12-07T14:10:33;4.50;99.90
25250;DHT22;13201;51.148;13.738;2022-12-07T14:13:00;4.40;99.90
25250;DHT22;13201;51.148;13.738;2022-12-07T14:15:31;4.40;99.90
25250;DHT22;13201;51.148;13.738;2022-12-07T14:17:59;4.50;99.90
25250;DHT22;13201;51.148;13.738;2022-12-07T14:20:39;4.60;99.90
25250;DHT22;13201;51.148;13.738;2022-12-07T14:23:26;4.60;99.90
25250;DHT22;13201;51.148;13.738;2022-12-07T14:25:53;4.70;99.90
25250;DHT22;13201;51.148;13.738;2022-12-07T14:28:33;4.80;99.90
25250;DHT22;13201;51.148;13.738;2022-12-07T14:31:00;4.70;99.90
25250;DHT22;13201;51.148;13.738;2022-12-07T14:33:27;4.80;99.90
25250;DHT22;13201;51.148;13.738;2022-12-07T14:35:53;4.80;99.90
25250;DHT22;13201;51.148;13.738;2022-12-07T14:38:24;4.90;99.90
25250;DHT22;13201;51.148;13.738;2022-12-07T14:40:50;4.80;99.90
25250;DHT22;13201;51.148;13.738;2022-12-07T14:43:17;4.70;99.90
25250;DHT22;13201;51.148;13.738;2022-12-07T14:45:43;4.70;99.90
25250;DHT22;13201;51.148;13.738;2022-12-07T14:48:13;4.70;99.90
25250;DHT22;13201;51.148;13.738;2022-12-07T14:50:49;4.80;99.90
25250;DHT22;13201;51.148;13.738;2022-12-07T14:53:19;4.80;99.90
25250;DHT22;13201;51.148;13.738;2022-12-07T14:55:47;4.70;99.90
25250;DHT22;13201;51.148;13.738;2022-12-07T14:58:17;4.60;99.90
25250;DHT22;13201;51.148;13.738;2022-12-07T15:00:43;4.60;99.90
25250;DHT22;13201;51.148;13.738;2022-12-07T15:03:10;4.50;99.90
25250;DHT22;13201;51.148;13.738;2022-12-07T15:05:36;4.50;99.90
25250;DHT22;13201;51.148;13.738;2022-12-07T15:08:02;4.50;99.90
25250;DHT22;13201;51.148;13.738;2022-12-07T15:10:32;4.50;99.90
25250;DHT22;13201;51.148;13.738;2022-12-07T15:13:02;4.10;99.90
25250;DHT22;13201;51.148;13.738;2022-12-07T15:15:51;4.00;99.90
25250;DHT22;13201;51.148;13.738;2022-12-07T15:18:18;4.00;99.90
25250;DHT22;13201;51.148;13.738;2022-12-07T15:20:45;3.90;99.90
25250;DHT22;13201;51.148;13.738;2022-12-07T15:23:12;3.70;99.90
25250;DHT22;13201;51.148;13.738;2022-12-07T15:25:41;3.60;99.90
25250;DHT22;13201;51.148;13.738;2022-12-07T15:28:06;3.50;99.90
25250;DHT22;13201;51.148;13.738;2022-12-07T15:30:32;3.60;99.90
25250;DHT22;13201;51.148;13.738;2022-12-07T15:32:58;3.60;99.90
25250;DHT22;13201;51.148;13.738;2022-12-07T15:35:23;3.60;99.90
25250;DHT22;13201;51.148;13.738;2022-12-07T15:37:49;3.60;99.90
25250;DHT22;13201;51.148;13.738;2022-12-07T15:40:15;3.60;99.90
25250;DHT22;13201;51.148;13.738;2022-12-07T15:42:40;3.70;99.90
25250;DHT22;13201;51.148;13.738;2022-12-07T15:45:08;3.80;99.90
25250;DHT22;13201;51.148;13.738;2022-12-07T15:47:40;3.90;99.90
25250;DHT22;13201;51.148;13.738;2022-12-07T15:50:09;4.00;99.90
25250;DHT22;13201;51.148;13.738;2022-12-07T15:52:36;4.10;99.90
25250;DHT22;13201;51.148;13.738;2022-12-07T15:55:02;4.20;99.90
25250;DHT22;13201;51.148;13.738;2022-12-07T15:57:29;4.40;99.90
25250;DHT22;13201;51.148;13.738;2022-12-07T15:59:55;4.50;99.90
25250;DHT22;13201;51.148;13.738;2022-12-07T16:02:21;4.50;99.90
25250;DHT22;13201;51.148;13.738;2022-12-07T16:04:48;4.40;99.90
25250;DHT22;13201;51.148;13.738;2022-12-07T16:07:13;4.40;99.90
25250;DHT22;13201;51.148;13.738;2022-12-07T16:09:41;4.60;99.90
25250;DHT22;13201;51.148;13.738;2022-12-07T16:12:07;4.50;99.90
25250;DHT22;13201;51.148;13.738;2022-12-07T16:14:33;4.50;99.90
25250;DHT22;13201;51.148;13.738;2022-12-07T16:16:59;4.50;99.90
25250;DHT22;13201;51.148;13.738;2022-12-07T16:19:25;4.40;99.90
25250;DHT22;13201;51.148;13.738;2022-12-07T16:21:50;4.30;99.90
25250;DHT22;13201;51.148;13.738;2022-12-07T16:24:16;4.40;99.90
25250;DHT22;13201;51.148;13.738;2022-12-07T16:26:43;4.40;99.90
25250;DHT22;13201;51.148;13.738;2022-12-07T16:29:11;4.40;99.90
25250;DHT22;13201;51.148;13.738;2022-12-07T16:31:36;4.40;99.90
25250;DHT22;13201;51.148;13.738;2022-12-07T16:34:02;4.50;99.90
25250;DHT22;13201;51.148;13.738;2022-12-07T16:36:28;4.50;99.90
25250;DHT22;13201;51.148;13.738;2022-12-07T16:38:54;4.50;99.90
25250;DHT22;13201;51.148;13.738;2022-12-07T16:41:19;4.60;99.90
25250;DHT22;13201;51.148;13.738;2022-12-07T16:43:45;4.50;99.90
25250;DHT22;13201;51.148;13.738;2022-12-07T16:46:11;4.40;99.90
25250;DHT22;13201;51.148;13.738;2022-12-07T16:48:38;4.30;99.90
25250;DHT22;13201;51.148;13.738;2022-12-07T16:51:10;4.30;99.90
25250;DHT22;13201;51.148;13.738;2022-12-07T16:53:37;4.40;99.90
25250;DHT22;13201;51.148;13.738;2022-12-07T16:56:04;4.30;99.90
25250;DHT22;13201;51.148;13.738;2022-12-07T16:58:31;4.30;99.90
25250;DHT22;13201;51.148;13.738;2022-12-07T17:00:56;4.30;99.90
25250;DHT22;13201;51.148;13.738;2022-12-07T17:03:22;4.30;99.90
25250;DHT22;13201;51.148;13.738;2022-12-07T17:05:48;4.30;99.90
25250;DHT22;13201;51.148;13.738;2022-12-07T17:08:14;4.20;99.90
25250;DHT22;13201;51.148;13.738;2022-12-07T17:10:43;4.20;99.90
25250;DHT22;13201;51.148;13.738;2022-12-07T17:13:10;4.20;99.90
25250;DHT22;13201;51.148;13.738;2022-12-07T17:16:15;4.30;99.90
25250;DHT22;13201;51.148;13.738;2022-12-07T17:18:40;4.30;99.90
25250;DHT22;13201;51.148;13.738;2022-12-07T17:21:08;4.20;99.90
25250;DHT22;13201;51.148;13.738;2022-12-07T17:23:37;4.10;99.90
25250;DHT22;13201;51.148;13.738;2022-12-07T17:26:15;4.20;99.90
25250;DHT22;13201;51.148;13.738;2022-12-07T17:28:41;4.20;99.90
25250;DHT22;13201;51.148;13.738;2022-12-07T17:31:09;4.30;99.90
25250;DHT22;13201;51.148;13.738;2022-12-07T17:33:36;4.20;99.90
25250;DHT22;13201;51.148;13.738;2022-12-07T17:36:12;4.30;99.90
25250;DHT22;13201;51.148;13.738;2022-12-07T17:38:39;4.20;99.90
25250;DHT22;13201;51.148;13.738;2022-12-07T17:41:14;4.20;99.90
25250;DHT22;13201;51.148;13.738;2022-12-07T17:44:05;4.30;99.90
25250;DHT22;13201;51.148;13.738;2022-12-07T17:46:31;4.20;99.90
25250;DHT22;13201;51.148;13.738;2022-12-07T17:48:58;4.20;99.90
25250;DHT22;13201;51.148;13.738;2022-12-07T17:51:24;4.10;99.90
25250;DHT22;13201;51.148;13.738;2022-12-07T17:54:08;4.20;99.90
25250;DHT22;13201;51.148;13.738;2022-12-07T17:56:35;4.20;99.90
25250;DHT22;13201;51.148;13.738;2022-12-07T17:59:01;4.10;99.90
25250;DHT22;13201;51.148;13.738;2022-12-07T18:01:27;4.10;99.90
25250;DHT22;13201;51.148;13.738;2022-12-07T18:03:53;4.10;99.90
25250;DHT22;13201;51.148;13.738;2022-12-07T18:06:18;4.10;99.90
25250;DHT22;13201;51.148;13.738;2022-12-07T18:08:44;4.10;99.90
25250;DHT22;13201;51.148;13.738;2022-12-07T18:11:10;4.00;99.90
25250;DHT22;13201;51.148;13.738;2022-12-07T18:13:36;4.00;99.90
25250;DHT22;13201;51.148;13.738;2022-12-07T18:16:23;4.00;99.90
25250;DHT22;13201;51.148;13.738;2022-12-07T18:18:50;3.90;99.90
25250;DHT22;13201;51.148;13.738;2022-12-07T18:21:21;3.90;99.90
25250;DHT22;13201;51.148;13.738;2022-12-07T18:23:49;3.70;99.90
25250;DHT22;13201;51.148;13.738;2022-12-07T18:26:16;3.70;99.90
25250;DHT22;13201;51.148;13.738;2022-12-07T18:28:42;3.90;99.90